sensor_id;sensor_type;location;lat;lon;timestamp;pressure;altitude;pressure_sealevel;temperature;humidity
49515;BME280;35415;47.870;16.058;2023-04-06T01:47:10;97572.03;;;-1.86;64.89
49515;BME280;35415;47.870;16.058;2023-04-06T01:52:39;97627.06;;;-1.68;65.45
49515;BME280;35415;47.870;16.058;2023-04-06T01:55:07;97503.03;;;-2.33;65.17
49515;BME280;35415;47.870;16.058;2023-04-06T01:57:35;97548.38;;;-2.23;65.60
49515;BME280;35415;47.870;16.058;2023-04-06T02:03:06;97607.50;;;-1.73;65.37
49515;BME280;35415;47.870;16.058;2023-04-06T02:05:34;97589.97;;;-1.81;65.54
49515;BME280;35415;47.870;16.058;2023-04-06T02:08:03;97616.31;;;-1.81;65.47
49515;BME280;35415;47.870;16.058;2023-04-06T02:10:31;97587.56;;;-1.91;66.04
49515;BME280;35415;47.870;16.058;2023-04-06T02:12:59;97508.09;;;-2.47;65.73
49515;BME280;35415;47.870;16.058;2023-04-06T03:37:30;97471.75;;;-3.26;68.20
49515;BME280;35415;47.870;16.058;2023-04-06T03:45:59;97613.31;;;-2.30;68.42
49515;BME280;35415;47.870;16.058;2023-04-06T03:48:26;97588.63;;;-2.52;68.72
49515;BME280;35415;47.870;16.058;2023-04-06T03:54:00;97507.38;;;-3.24;68.76
49515;BME280;35415;47.870;16.058;2023-04-06T06:03:39;97595.41;;;-1.83;69.26
49515;BME280;35415;47.870;16.058;2023-04-06T06:08:37;97489.03;;;-2.49;68.73
49515;BME280;35415;47.870;16.058;2023-04-06T06:14:07;97530.22;;;-1.89;68.42
49515;BME280;35415;47.870;16.058;2023-04-06T06:16:43;97457.50;;;-2.27;68.21
49515;BME280;35415;47.870;16.058;2023-04-06T06:19:15;97549.41;;;-1.65;67.63
49515;BME280;35415;47.870;16.058;2023-04-06T06:24:50;97514.34;;;-1.44;67.43
49515;BME280;35415;47.870;16.058;2023-04-06T06:27:17;97581.66;;;-0.98;66.81
49515;BME280;35415;47.870;16.058;2023-04-06T06:29:45;97462.09;;;-1.70;66.66
49515;BME280;35415;47.870;16.058;2023-04-06T06:41:33;97543.69;;;-0.54;64.82
49515;BME280;35415;47.870;16.058;2023-04-06T06:44:01;97485.41;;;-0.74;64.20
49515;BME280;35415;47.870;16.058;2023-04-06T06:46:28;97489.16;;;-0.62;63.51
49515;BME280;35415;47.870;16.058;2023-04-06T06:48:56;97507.03;;;-0.36;61.83
49515;BME280;35415;47.870;16.058;2023-04-06T06:51:27;97557.66;;;0.17;61.95
49515;BME280;35415;47.870;16.058;2023-04-06T06:53:54;97518.31;;;0.08;61.56
49515;BME280;35415;47.870;16.058;2023-04-06T06:56:22;97553.09;;;0.46;61.15
49515;BME280;35415;47.870;16.058;2023-04-06T06:58:51;97555.59;;;0.54;59.66
49515;BME280;35415;47.870;16.058;2023-04-06T07:01:20;97545.09;;;0.80;59.24
49515;BME280;35415;47.870;16.058;2023-04-06T07:03:48;97599.22;;;1.26;58.70
49515;BME280;35415;47.870;16.058;2023-04-06T07:06:16;97449.31;;;0.57;58.48
49515;BME280;35415;47.870;16.058;2023-04-06T07:08:48;97564.84;;;1.52;57.08
49515;BME280;35415;47.870;16.058;2023-04-06T07:11:16;97533.63;;;1.41;57.39
49515;BME280;35415;47.870;16.058;2023-04-06T07:16:32;97543.22;;;1.88;54.99
49515;BME280;35415;47.870;16.058;2023-04-06T07:25:10;97585.50;;;2.74;53.67
49515;BME280;35415;47.870;16.058;2023-04-06T07:27:37;97595.28;;;2.87;53.82
49515;BME280;35415;47.870;16.058;2023-04-06T07:30:06;97586.00;;;3.03;51.30
49515;BME280;35415;47.870;16.058;2023-04-06T07:32:35;97579.38;;;3.18;51.71
49515;BME280;35415;47.870;16.058;2023-04-06T07:35:03;97533.47;;;2.98;50.77
49515;BME280;35415;47.870;16.058;2023-04-06T07:37:30;97584.97;;;3.42;50.20
49515;BME280;35415;47.870;16.058;2023-04-06T07:39:58;97589.63;;;3.53;49.77
49515;BME280;35415;47.870;16.058;2023-04-06T07:42:25;97588.31;;;3.62;50.21
49515;BME280;35415;47.870;16.058;2023-04-06T07:44:52;97589.25;;;3.74;49.65
49515;BME280;35415;47.870;16.058;2023-04-06T07:47:23;97584.66;;;3.88;48.03
49515;BME280;35415;47.870;16.058;2023-04-06T07:49:54;97584.31;;;4.03;46.81
49515;BME280;35415;47.870;16.058;2023-04-06T07:52:24;97558.78;;;3.95;48.23
49515;BME280;35415;47.870;16.058;2023-04-06T07:54:51;97579.47;;;4.18;46.65
49515;BME280;35415;47.870;16.058;2023-04-06T07:57:19;97580.84;;;4.27;46.09
49515;BME280;35415;47.870;16.058;2023-04-06T07:59:49;97583.41;;;4.34;45.73
49515;BME280;35415;47.870;16.058;2023-04-06T08:02:17;97549.78;;;4.21;45.41
49515;BME280;35415;47.870;16.058;2023-04-06T08:04:44;97548.44;;;4.30;46.52
49515;BME280;35415;47.870;16.058;2023-04-06T08:07:13;97517.88;;;4.14;46.03
49515;BME280;35415;47.870;16.058;2023-04-06T08:09:44;97487.03;;;4.07;45.52
49515;BME280;35415;47.870;16.058;2023-04-06T08:12:11;97479.66;;;4.09;45.53
49515;BME280;35415;47.870;16.058;2023-04-06T08:14:39;97476.84;;;4.22;45.06
49515;BME280;35415;47.870;16.058;2023-04-06T08:17:07;97568.56;;;4.81;44.11
49515;BME280;35415;47.870;16.058;2023-04-06T08:19:39;97461.75;;;4.16;43.71
49515;BME280;35415;47.870;16.058;2023-04-06T08:22:06;97527.00;;;4.62;44.30
49515;BME280;35415;47.870;16.058;2023-04-06T08:24:35;97497.56;;;4.57;44.12
49515;BME280;35415;47.870;16.058;2023-04-06T08:27:06;97485.09;;;4.50;44.60
49515;BME280;35415;47.870;16.058;2023-04-06T08:29:33;97504.06;;;4.61;44.07
49515;BME280;35415;47.870;16.058;2023-04-06T08:32:02;97529.19;;;4.83;44.09
49515;BME280;35415;47.870;16.058;2023-04-06T08:34:37;97532.03;;;5.00;43.52
49515;BME280;35415;47.870;16.058;2023-04-06T08:37:04;97459.69;;;4.66;43.64
49515;BME280;35415;47.870;16.058;2023-04-06T08:39:37;97542.13;;;5.28;43.52
49515;BME280;35415;47.870;16.058;2023-04-06T08:42:11;97450.03;;;4.83;43.35
49515;BME280;35415;47.870;16.058;2023-04-06T08:44:40;97435.19;;;4.76;42.25
49515;BME280;35415;47.870;16.058;2023-04-06T08:47:13;97504.56;;;5.29;42.78
49515;BME280;35415;47.870;16.058;2023-04-06T08:49:45;97448.00;;;4.97;43.03
49515;BME280;35415;47.870;16.058;2023-04-06T08:52:13;97493.78;;;5.36;42.56
49515;BME280;35415;47.870;16.058;2023-04-06T08:54:44;97552.72;;;5.76;42.64
49515;BME280;35415;47.870;16.058;2023-04-06T08:57:12;97472.00;;;5.39;41.59
49515;BME280;35415;47.870;16.058;2023-04-06T08:59:43;97491.88;;;5.66;40.41
49515;BME280;35415;47.870;16.058;2023-04-06T09:02:17;97529.19;;;5.96;41.77
49515;BME280;35415;47.870;16.058;2023-04-06T09:07:47;97405.88;;;5.29;41.72
49515;BME280;35415;47.870;16.058;2023-04-06T09:19:31;97505.84;;;6.39;38.99
49515;BME280;35415;47.870;16.058;2023-04-06T09:25:00;97470.41;;;6.31;39.64
49515;BME280;35415;47.870;16.058;2023-04-06T09:27:31;97453.00;;;6.29;39.66
49515;BME280;35415;47.870;16.058;2023-04-06T09:30:04;97470.34;;;6.55;37.86
49515;BME280;35415;47.870;16.058;2023-04-06T09:38:52;97354.34;;;6.11;38.50
49515;BME280;35415;47.870;16.058;2023-04-06T09:41:27;97405.66;;;6.53;37.84
49515;BME280;35415;47.870;16.058;2023-04-06T09:44:03;97447.28;;;6.77;37.31
49515;BME280;35415;47.870;16.058;2023-04-06T09:46:35;97370.63;;;6.38;37.09
49515;BME280;35415;47.870;16.058;2023-04-06T09:49:04;97419.22;;;6.91;37.34
49515;BME280;35415;47.870;16.058;2023-04-06T09:51:37;97486.06;;;7.37;36.66
49515;BME280;35415;47.870;16.058;2023-04-06T09:54:07;97483.59;;;7.47;36.38
49515;BME280;35415;47.870;16.058;2023-04-06T09:56:47;97462.91;;;7.42;36.19
49515;BME280;35415;47.870;16.058;2023-04-06T09:59:38;97476.13;;;7.66;36.28
49515;BME280;35415;47.870;16.058;2023-04-06T10:02:18;97453.81;;;7.60;36.08
49515;BME280;35415;47.870;16.058;2023-04-06T10:04:54;97464.78;;;7.75;36.34
49515;BME280;35415;47.870;16.058;2023-04-06T10:07:23;97403.59;;;7.50;35.58
49515;BME280;35415;47.870;16.058;2023-04-06T10:09:53;97438.13;;;7.85;36.18
49515;BME280;35415;47.870;16.058;2023-04-06T10:12:21;97426.63;;;7.85;35.86
49515;BME280;35415;47.870;16.058;2023-04-06T10:14:49;97432.69;;;7.97;35.65
49515;BME280;35415;47.870;16.058;2023-04-06T10:17:16;97439.81;;;8.08;35.67
49515;BME280;35415;47.870;16.058;2023-04-06T10:19:51;97469.41;;;8.19;34.80
49515;BME280;35415;47.870;16.058;2023-04-06T10:22:26;97449.84;;;8.35;34.84
49515;BME280;35415;47.870;16.058;2023-04-06T10:24:58;97420.63;;;8.17;34.35
49515;BME280;35415;47.870;16.058;2023-04-06T10:27:29;97409.78;;;8.06;34.89
49515;BME280;35415;47.870;16.058;2023-04-06T10:30:04;97452.44;;;8.30;34.92
49515;BME280;35415;47.870;16.058;2023-04-06T10:32:33;97405.56;;;8.10;35.47
49515;BME280;35415;47.870;16.058;2023-04-06T10:35:08;97444.47;;;8.35;35.72
49515;BME280;35415;47.870;16.058;2023-04-06T10:37:54;97400.50;;;8.14;36.55
49515;BME280;35415;47.870;16.058;2023-04-06T10:40:28;97377.50;;;8.18;34.88
49515;BME280;35415;47.870;16.058;2023-04-06T10:43:07;97421.72;;;8.59;35.97
49515;BME280;35415;47.870;16.058;2023-04-06T10:45:37;97431.75;;;8.69;34.87
49515;BME280;35415;47.870;16.058;2023-04-06T10:48:14;97396.16;;;8.52;35.33
49515;BME280;35415;47.870;16.058;2023-04-06T10:50:43;97407.53;;;8.59;34.42
49515;BME280;35415;47.870;16.058;2023-04-06T10:53:20;97406.50;;;8.65;34.61
49515;BME280;35415;47.870;16.058;2023-04-06T10:55:50;97458.75;;;8.84;33.96
49515;BME280;35415;47.870;16.058;2023-04-06T10:58:19;97413.88;;;8.74;34.21
49515;BME280;35415;47.870;16.058;2023-04-06T11:00:49;97412.03;;;8.80;34.21
49515;BME280;35415;47.870;16.058;2023-04-06T11:03:16;97418.22;;;8.81;34.11
49515;BME280;35415;47.870;16.058;2023-04-06T11:05:44;97343.75;;;8.39;34.30
49515;BME280;35415;47.870;16.058;2023-04-06T11:08:22;97400.50;;;8.80;35.14
49515;BME280;35415;47.870;16.058;2023-04-06T11:10:51;97425.59;;;8.95;34.10
49515;BME280;35415;47.870;16.058;2023-04-06T11:13:18;97390.63;;;8.85;34.12
49515;BME280;35415;47.870;16.058;2023-04-06T11:15:46;97417.09;;;9.03;34.23
49515;BME280;35415;47.870;16.058;2023-04-06T11:18:17;97375.69;;;8.94;33.54
49515;BME280;35415;47.870;16.058;2023-04-06T11:20:50;97364.59;;;8.86;33.75
49515;BME280;35415;47.870;16.058;2023-04-06T11:23:23;97397.63;;;9.18;34.40
49515;BME280;35415;47.870;16.058;2023-04-06T11:25:53;97320.28;;;8.78;33.40
49515;BME280;35415;47.870;16.058;2023-04-06T11:28:21;97377.84;;;9.24;33.12
49515;BME280;35415;47.870;16.058;2023-04-06T11:30:48;97380.88;;;9.06;32.70
49515;BME280;35415;47.870;16.058;2023-04-06T11:33:21;97391.81;;;9.26;32.84
49515;BME280;35415;47.870;16.058;2023-04-06T11:35:51;97386.91;;;9.18;33.37
49515;BME280;35415;47.870;16.058;2023-04-06T11:38:21;97326.22;;;8.80;33.36
49515;BME280;35415;47.870;16.058;2023-04-06T11:40:54;97359.06;;;9.24;33.56
49515;BME280;35415;47.870;16.058;2023-04-06T11:43:27;97360.97;;;9.29;32.88
49515;BME280;35415;47.870;16.058;2023-04-06T11:46:04;97363.91;;;9.27;33.39
49515;BME280;35415;47.870;16.058;2023-04-06T11:48:44;97331.31;;;9.14;33.09
49515;BME280;35415;47.870;16.058;2023-04-06T11:51:11;97353.94;;;9.23;32.64
49515;BME280;35415;47.870;16.058;2023-04-06T11:53:43;97336.22;;;9.22;32.48
49515;BME280;35415;47.870;16.058;2023-04-06T11:56:22;97379.00;;;9.39;33.13
49515;BME280;35415;47.870;16.058;2023-04-06T11:58:50;97338.16;;;9.31;33.06
49515;BME280;35415;47.870;16.058;2023-04-06T12:01:18;97361.34;;;9.43;33.04
49515;BME280;35415;47.870;16.058;2023-04-06T12:03:48;97345.00;;;9.49;32.69
49515;BME280;35415;47.870;16.058;2023-04-06T12:06:17;97320.19;;;9.32;33.22
49515;BME280;35415;47.870;16.058;2023-04-06T12:08:51;97312.44;;;9.35;32.26
49515;BME280;35415;47.870;16.058;2023-04-06T12:11:24;97272.59;;;9.22;32.09
49515;BME280;35415;47.870;16.058;2023-04-06T12:16:40;97259.50;;;9.26;32.48
49515;BME280;35415;47.870;16.058;2023-04-06T12:19:13;97315.56;;;9.64;33.02
49515;BME280;35415;47.870;16.058;2023-04-06T12:21:40;97295.09;;;9.53;32.68
49515;BME280;35415;47.870;16.058;2023-04-06T12:24:08;97268.13;;;9.38;32.63
49515;BME280;35415;47.870;16.058;2023-04-06T12:26:48;97318.91;;;9.87;32.92
49515;BME280;35415;47.870;16.058;2023-04-06T12:29:16;97218.72;;;9.29;32.17
49515;BME280;35415;47.870;16.058;2023-04-06T12:31:44;97203.16;;;9.31;32.14
49515;BME280;35415;47.870;16.058;2023-04-06T12:34:11;97251.59;;;9.56;32.74
49515;BME280;35415;47.870;16.058;2023-04-06T12:36:43;97195.38;;;9.29;31.59
49515;BME280;35415;47.870;16.058;2023-04-06T12:39:52;97292.34;;;9.95;32.03
49515;BME280;35415;47.870;16.058;2023-04-06T12:42:35;97313.06;;;10.05;32.03
49515;BME280;35415;47.870;16.058;2023-04-06T12:47:57;97241.97;;;9.60;32.10
49515;BME280;35415;47.870;16.058;2023-04-06T12:50:31;97261.84;;;9.64;31.68
49515;BME280;35415;47.870;16.058;2023-04-06T12:52:59;97220.44;;;9.55;31.46
49515;BME280;35415;47.870;16.058;2023-04-06T12:55:30;97220.72;;;9.54;31.82
49515;BME280;35415;47.870;16.058;2023-04-06T12:58:12;97212.66;;;9.54;32.32
49515;BME280;35415;47.870;16.058;2023-04-06T13:00:40;97237.75;;;9.80;31.74
49515;BME280;35415;47.870;16.058;2023-04-06T13:03:09;97287.00;;;10.01;32.08
49515;BME280;35415;47.870;16.058;2023-04-06T13:05:43;97291.31;;;10.07;31.66
49515;BME280;35415;47.870;16.058;2023-04-06T13:08:11;97271.44;;;10.08;31.49
49515;BME280;35415;47.870;16.058;2023-04-06T13:10:43;97245.06;;;9.94;31.79
49515;BME280;35415;47.870;16.058;2023-04-06T13:13:23;97212.50;;;9.76;31.47
49515;BME280;35415;47.870;16.058;2023-04-06T13:18:52;97288.19;;;10.30;31.87
49515;BME280;35415;47.870;16.058;2023-04-06T13:21:37;97178.06;;;9.57;31.40
49515;BME280;35415;47.870;16.058;2023-04-06T13:24:04;97197.69;;;9.68;31.44
49515;BME280;35415;47.870;16.058;2023-04-06T13:26:32;97181.03;;;9.71;31.97
49515;BME280;35415;47.870;16.058;2023-04-06T13:32:09;97279.59;;;10.38;31.85
49515;BME280;35415;47.870;16.058;2023-04-06T13:34:37;97225.50;;;10.09;32.35
49515;BME280;35415;47.870;16.058;2023-04-06T13:37:08;97149.38;;;9.78;32.38
49515;BME280;35415;47.870;16.058;2023-04-06T13:39:36;97213.97;;;10.24;31.94
49515;BME280;35415;47.870;16.058;2023-04-06T13:42:03;97186.00;;;10.10;31.43
49515;BME280;35415;47.870;16.058;2023-04-06T13:44:32;97206.44;;;10.21;31.57
49515;BME280;35415;47.870;16.058;2023-04-06T13:47:03;97182.72;;;10.03;31.39
49515;BME280;35415;47.870;16.058;2023-04-06T13:49:32;97222.59;;;10.36;31.57
49515;BME280;35415;47.870;16.058;2023-04-06T13:51:59;97189.22;;;10.17;31.46
49515;BME280;35415;47.870;16.058;2023-04-06T13:54:27;97214.28;;;10.33;31.86
49515;BME280;35415;47.870;16.058;2023-04-06T13:56:55;97152.88;;;9.89;31.77
49515;BME280;35415;47.870;16.058;2023-04-06T13:59:25;97219.38;;;10.29;31.34
49515;BME280;35415;47.870;16.058;2023-04-06T14:01:58;97180.06;;;10.18;31.74
49515;BME280;35415;47.870;16.058;2023-04-06T14:04:26;97232.56;;;10.41;31.43
49515;BME280;35415;47.870;16.058;2023-04-06T14:06:56;97271.31;;;10.65;31.08
49515;BME280;35415;47.870;16.058;2023-04-06T14:09:26;97273.47;;;10.63;31.58
49515;BME280;35415;47.870;16.058;2023-04-06T14:11:54;97201.28;;;10.04;31.37
49515;BME280;35415;47.870;16.058;2023-04-06T14:14:22;97178.88;;;9.73;31.96
49515;BME280;35415;47.870;16.058;2023-04-06T14:16:49;97272.06;;;10.35;32.05
49515;BME280;35415;47.870;16.058;2023-04-06T14:19:17;97255.31;;;10.13;32.28
49515;BME280;35415;47.870;16.058;2023-04-06T14:21:45;97184.78;;;9.60;32.79
49515;BME280;35415;47.870;16.058;2023-04-06T14:24:14;97266.09;;;10.13;32.47
49515;BME280;35415;47.870;16.058;2023-04-06T14:26:41;97244.78;;;9.96;33.28
49515;BME280;35415;47.870;16.058;2023-04-06T14:29:11;97248.56;;;10.00;32.91
49515;BME280;35415;47.870;16.058;2023-04-06T14:31:39;97263.94;;;10.10;33.06
49515;BME280;35415;47.870;16.058;2023-04-06T14:34:06;97251.00;;;10.07;33.19
49515;BME280;35415;47.870;16.058;2023-04-06T14:36:34;97242.38;;;10.05;33.13
49515;BME280;35415;47.870;16.058;2023-04-06T14:39:07;97272.25;;;10.13;33.05
49515;BME280;35415;47.870;16.058;2023-04-06T14:41:37;97280.06;;;10.15;32.90
49515;BME280;35415;47.870;16.058;2023-04-06T14:44:06;97234.53;;;9.83;33.03
49515;BME280;35415;47.870;16.058;2023-04-06T14:46:37;97264.19;;;10.08;33.15
49515;BME280;35415;47.870;16.058;2023-04-06T14:49:13;97262.81;;;10.01;33.04
49515;BME280;35415;47.870;16.058;2023-04-06T14:51:40;97200.28;;;9.53;33.47
49515;BME280;35415;47.870;16.058;2023-04-06T14:54:10;97243.91;;;9.75;33.36
49515;BME280;35415;47.870;16.058;2023-04-06T14:56:40;97212.09;;;9.52;33.73
49515;BME280;35415;47.870;16.058;2023-04-06T14:59:11;97260.59;;;9.82;33.95
49515;BME280;35415;47.870;16.058;2023-04-06T15:01:38;97237.69;;;9.64;33.76
49515;BME280;35415;47.870;16.058;2023-04-06T15:04:05;97251.13;;;9.64;34.07
49515;BME280;35415;47.870;16.058;2023-04-06T15:06:43;97269.16;;;9.74;34.11
49515;BME280;35415;47.870;16.058;2023-04-06T15:09:23;97255.16;;;9.67;34.26
49515;BME280;35415;47.870;16.058;2023-04-06T15:11:52;97260.78;;;9.65;34.13
49515;BME280;35415;47.870;16.058;2023-04-06T15:14:21;97237.84;;;9.43;34.46
49515;BME280;35415;47.870;16.058;2023-04-06T15:16:48;97273.13;;;9.67;34.37
49515;BME280;35415;47.870;16.058;2023-04-06T15:19:15;97268.28;;;9.63;34.58
49515;BME280;35415;47.870;16.058;2023-04-06T15:21:42;97274.19;;;9.60;34.37
49515;BME280;35415;47.870;16.058;2023-04-06T15:24:10;97264.53;;;9.59;34.81
49515;BME280;35415;47.870;16.058;2023-04-06T15:26:37;97207.66;;;9.20;35.07
49515;BME280;35415;47.870;16.058;2023-04-06T15:29:08;97255.69;;;9.64;34.60
49515;BME280;35415;47.870;16.058;2023-04-06T15:31:36;97200.47;;;9.31;34.76
49515;BME280;35415;47.870;16.058;2023-04-06T15:34:04;97163.00;;;9.04;34.47
49515;BME280;35415;47.870;16.058;2023-04-06T15:36:37;97187.50;;;9.13;34.63
49515;BME280;35415;47.870;16.058;2023-04-06T15:39:06;97190.72;;;9.15;34.33
49515;BME280;35415;47.870;16.058;2023-04-06T15:41:41;97195.81;;;9.16;34.19
49515;BME280;35415;47.870;16.058;2023-04-06T15:44:09;97272.34;;;9.71;34.82
49515;BME280;35415;47.870;16.058;2023-04-06T15:46:40;97218.47;;;9.35;34.34
49515;BME280;35415;47.870;16.058;2023-04-06T15:49:08;97276.34;;;9.63;34.25
49515;BME280;35415;47.870;16.058;2023-04-06T15:51:35;97252.41;;;9.57;34.70
49515;BME280;35415;47.870;16.058;2023-04-06T15:54:03;97238.94;;;9.42;34.64
49515;BME280;35415;47.870;16.058;2023-04-06T15:56:31;97165.09;;;8.92;34.77
49515;BME280;35415;47.870;16.058;2023-04-06T15:59:00;97145.19;;;8.83;34.83
49515;BME280;35415;47.870;16.058;2023-04-06T16:01:30;97249.09;;;9.40;34.57
49515;BME280;35415;47.870;16.058;2023-04-06T16:03:59;97154.06;;;8.88;34.87
49515;BME280;35415;47.870;16.058;2023-04-06T16:06:27;97224.34;;;9.27;35.00
49515;BME280;35415;47.870;16.058;2023-04-06T16:08:54;97143.56;;;8.77;34.69
49515;BME280;35415;47.870;16.058;2023-04-06T16:11:24;97221.88;;;9.21;35.01
49515;BME280;35415;47.870;16.058;2023-04-06T16:13:52;97180.41;;;8.96;34.74
49515;BME280;35415;47.870;16.058;2023-04-06T16:16:22;97133.53;;;8.62;35.12
49515;BME280;35415;47.870;16.058;2023-04-06T16:18:51;97190.09;;;9.02;34.87
49515;BME280;35415;47.870;16.058;2023-04-06T16:21:19;97201.13;;;9.06;35.21
49515;BME280;35415;47.870;16.058;2023-04-06T16:23:47;97206.53;;;9.11;34.91
49515;BME280;35415;47.870;16.058;2023-04-06T16:26:20;97214.34;;;9.18;34.96
49515;BME280;35415;47.870;16.058;2023-04-06T16:28:48;97235.03;;;9.22;35.02
49515;BME280;35415;47.870;16.058;2023-04-06T16:31:19;97270.91;;;9.48;34.96
49515;BME280;35415;47.870;16.058;2023-04-06T16:33:48;97273.31;;;9.45;35.25
49515;BME280;35415;47.870;16.058;2023-04-06T16:36:25;97273.59;;;9.48;35.33
49515;BME280;35415;47.870;16.058;2023-04-06T16:38:55;97257.38;;;9.33;35.47
49515;BME280;35415;47.870;16.058;2023-04-06T16:41:24;97239.91;;;9.25;35.64
49515;BME280;35415;47.870;16.058;2023-04-06T16:43:52;97198.25;;;8.76;35.20
49515;BME280;35415;47.870;16.058;2023-04-06T16:46:21;97279.69;;;9.39;35.41
49515;BME280;35415;47.870;16.058;2023-04-06T16:48:49;97249.78;;;9.20;35.29
49515;BME280;35415;47.870;16.058;2023-04-06T16:51:16;97277.78;;;9.34;35.41
49515;BME280;35415;47.870;16.058;2023-04-06T16:53:45;97275.13;;;9.39;35.71
49515;BME280;35415;47.870;16.058;2023-04-06T16:56:13;97274.56;;;9.37;35.64
49515;BME280;35415;47.870;16.058;2023-04-06T16:58:41;97276.19;;;9.38;35.29
49515;BME280;35415;47.870;16.058;2023-04-06T17:01:17;97272.97;;;9.36;35.42
49515;BME280;35415;47.870;16.058;2023-04-06T17:03:44;97276.97;;;9.28;35.22
49515;BME280;35415;47.870;16.058;2023-04-06T17:06:12;97287.63;;;9.23;35.50
49515;BME280;35415;47.870;16.058;2023-04-06T17:08:40;97286.06;;;9.27;35.67
49515;BME280;35415;47.870;16.058;2023-04-06T17:11:09;97228.63;;;8.86;35.61
49515;BME280;35415;47.870;16.058;2023-04-06T17:13:39;97250.44;;;8.95;35.59
49515;BME280;35415;47.870;16.058;2023-04-06T17:16:07;97277.66;;;9.14;35.92
49515;BME280;35415;47.870;16.058;2023-04-06T17:18:35;97279.78;;;9.12;36.07
49515;BME280;35415;47.870;16.058;2023-04-06T17:21:03;97258.19;;;8.91;35.89
49515;BME280;35415;47.870;16.058;2023-04-06T17:23:32;97236.53;;;8.71;36.01
49515;BME280;35415;47.870;16.058;2023-04-06T17:26:02;97285.34;;;9.00;36.34
49515;BME280;35415;47.870;16.058;2023-04-06T17:28:31;97276.38;;;8.89;36.29
49515;BME280;35415;47.870;16.058;2023-04-06T17:30:59;97237.31;;;8.66;36.23
49515;BME280;35415;47.870;16.058;2023-04-06T17:33:27;97263.69;;;8.74;36.32
49515;BME280;35415;47.870;16.058;2023-04-06T17:35:59;97295.25;;;8.99;36.68
49515;BME280;35415;47.870;16.058;2023-04-06T17:38:26;97232.88;;;8.50;36.69
49515;BME280;35415;47.870;16.058;2023-04-06T17:40:55;97258.22;;;8.64;36.41
49515;BME280;35415;47.870;16.058;2023-04-06T17:43:23;97298.06;;;8.83;36.62
49515;BME280;35415;47.870;16.058;2023-04-06T17:45:52;97279.38;;;8.61;37.13
49515;BME280;35415;47.870;16.058;2023-04-06T17:48:19;97300.16;;;8.76;37.28
49515;BME280;35415;47.870;16.058;2023-04-06T17:50:46;97278.81;;;8.59;37.45
49515;BME280;35415;47.870;16.058;2023-04-06T17:53:13;97313.03;;;8.73;36.77
49515;BME280;35415;47.870;16.058;2023-04-06T17:55:43;97272.44;;;8.38;36.89
49515;BME280;35415;47.870;16.058;2023-04-06T17:58:10;97291.59;;;8.52;36.85
49515;BME280;35415;47.870;16.058;2023-04-06T18:00:38;97294.81;;;8.49;36.68
49515;BME280;35415;47.870;16.058;2023-04-06T18:03:06;97267.78;;;8.28;36.76
49515;BME280;35415;47.870;16.058;2023-04-06T18:05:34;97319.28;;;8.57;37.31
49515;BME280;35415;47.870;16.058;2023-04-06T18:08:01;97325.13;;;8.54;36.71
49515;BME280;35415;47.870;16.058;2023-04-06T18:10:28;97322.97;;;8.51;37.25
49515;BME280;35415;47.870;16.058;2023-04-06T18:12:55;97308.34;;;8.37;36.82
49515;BME280;35415;47.870;16.058;2023-04-06T18:15:25;97312.00;;;8.31;38.17
49515;BME280;35415;47.870;16.058;2023-04-06T18:17:52;97328.47;;;8.39;38.23
49515;BME280;35415;47.870;16.058;2023-04-06T18:20:21;97317.88;;;8.28;38.29
49515;BME280;35415;47.870;16.058;2023-04-06T18:22:49;97312.94;;;8.20;37.84
49515;BME280;35415;47.870;16.058;2023-04-06T18:25:16;97336.13;;;8.31;37.13
49515;BME280;35415;47.870;16.058;2023-04-06T18:27:44;97328.16;;;8.14;37.18
49515;BME280;35415;47.870;16.058;2023-04-06T18:30:12;97321.69;;;8.10;37.92
49515;BME280;35415;47.870;16.058;2023-04-06T18:32:42;97320.63;;;8.11;36.60
49515;BME280;35415;47.870;16.058;2023-04-06T18:35:09;97333.78;;;8.12;36.77
49515;BME280;35415;47.870;16.058;2023-04-06T18:37:40;97345.59;;;8.17;37.55
49515;BME280;35415;47.870;16.058;2023-04-06T18:40:08;97294.78;;;7.78;37.76
49515;BME280;35415;47.870;16.058;2023-04-06T18:43:06;97344.09;;;8.04;38.03
49515;BME280;35415;47.870;16.058;2023-04-06T18:45:35;97349.78;;;8.07;37.96
49515;BME280;35415;47.870;16.058;2023-04-06T18:48:05;97310.16;;;7.66;37.73
49515;BME280;35415;47.870;16.058;2023-04-06T18:50:35;97363.09;;;8.02;38.11
49515;BME280;35415;47.870;16.058;2023-04-06T18:53:05;97350.16;;;7.94;38.42
49515;BME280;35415;47.870;16.058;2023-04-06T18:55:34;97360.63;;;7.96;38.45
49515;BME280;35415;47.870;16.058;2023-04-06T18:58:04;97359.25;;;7.93;38.48
49515;BME280;35415;47.870;16.058;2023-04-06T19:00:33;97359.97;;;7.89;37.94
49515;BME280;35415;47.870;16.058;2023-04-06T19:03:01;97374.16;;;7.89;37.27
49515;BME280;35415;47.870;16.058;2023-04-06T19:05:28;97366.09;;;7.84;38.20
49515;BME280;35415;47.870;16.058;2023-04-06T19:07:55;97374.63;;;7.81;38.05
49515;BME280;35415;47.870;16.058;2023-04-06T19:10:24;97374.63;;;7.81;37.31
49515;BME280;35415;47.870;16.058;2023-04-06T19:12:51;97365.97;;;7.74;38.62
49515;BME280;35415;47.870;16.058;2023-04-06T19:15:19;97347.72;;;7.54;38.07
49515;BME280;35415;47.870;16.058;2023-04-06T19:17:46;97375.50;;;7.70;38.67
49515;BME280;35415;47.870;16.058;2023-04-06T19:20:14;97362.56;;;7.62;38.04
49515;BME280;35415;47.870;16.058;2023-04-06T19:22:41;97368.41;;;7.59;38.78
49515;BME280;35415;47.870;16.058;2023-04-06T19:25:09;97371.09;;;7.59;38.11
49515;BME280;35415;47.870;16.058;2023-04-06T19:27:38;97358.34;;;7.49;38.28
49515;BME280;35415;47.870;16.058;2023-04-06T19:30:07;97348.22;;;7.34;38.25
49515;BME280;35415;47.870;16.058;2023-04-06T19:32:35;97373.28;;;7.45;38.37
49515;BME280;35415;47.870;16.058;2023-04-06T19:35:04;97378.56;;;7.40;38.64
49515;BME280;35415;47.870;16.058;2023-04-06T19:37:32;97375.16;;;7.28;38.37
49515;BME280;35415;47.870;16.058;2023-04-06T19:39:59;97364.53;;;7.16;39.06
49515;BME280;35415;47.870;16.058;2023-04-06T19:42:27;97382.06;;;7.23;39.33